sensor_id;sensor_type;location;lat;lon;timestamp;pressure;altitude;pressure_sealevel;temperature;humidity
39487;BME280;25173;50.430;18.926;2023-08-07T00:00:22;97014.19;;;17.82;81.85
39487;BME280;25173;50.430;18.926;2023-08-07T00:03:23;97014.66;;;17.84;81.56
39487;BME280;25173;50.430;18.926;2023-08-07T00:06:23;97010.38;;;17.87;81.70
39487;BME280;25173;50.430;18.926;2023-08-07T00:09:24;97007.75;;;17.90;81.82
39487;BME280;25173;50.430;18.926;2023-08-07T00:12:25;96999.56;;;17.94;81.27
39487;BME280;25173;50.430;18.926;2023-08-07T00:15:25;97003.03;;;17.91;81.43
39487;BME280;25173;50.430;18.926;2023-08-07T00:18:26;96993.28;;;17.93;81.49
39487;BME280;25173;50.430;18.926;2023-08-07T00:21:26;96997.88;;;17.89;81.39
39487;BME280;25173;50.430;18.926;2023-08-07T00:24:27;96999.03;;;17.88;81.53
39487;BME280;25173;50.430;18.926;2023-08-07T00:27:27;96999.94;;;17.92;81.95
39487;BME280;25173;50.430;18.926;2023-08-07T00:30:28;96994.06;;;17.94;81.58
39487;BME280;25173;50.430;18.926;2023-08-07T00:33:28;96990.53;;;17.93;81.81
39487;BME280;25173;50.430;18.926;2023-08-07T00:36:29;96999.94;;;17.92;81.55
39487;BME280;25173;50.430;18.926;2023-08-07T00:39:31;96993.63;;;17.92;81.39
39487;BME280;25173;50.430;18.926;2023-08-07T00:42:32;96996.66;;;17.74;80.55
39487;BME280;25173;50.430;18.926;2023-08-07T00:45:36;97003.81;;;17.63;80.70
39487;BME280;25173;50.430;18.926;2023-08-07T00:48:38;96996.47;;;17.55;81.14
39487;BME280;25173;50.430;18.926;2023-08-07T00:51:39;97001.25;;;17.58;81.26
39487;BME280;25173;50.430;18.926;2023-08-07T00:54:40;96990.41;;;17.62;81.34
39487;BME280;25173;50.430;18.926;2023-08-07T00:57:41;96986.94;;;17.65;81.31
39487;BME280;25173;50.430;18.926;2023-08-07T01:00:41;96980.28;;;17.66;81.35
39487;BME280;25173;50.430;18.926;2023-08-07T01:03:42;96988.06;;;17.64;81.27
39487;BME280;25173;50.430;18.926;2023-08-07T01:06:43;96980.03;;;17.59;81.55
39487;BME280;25173;50.430;18.926;2023-08-07T01:09:44;96979.56;;;17.57;81.61
39487;BME280;25173;50.430;18.926;2023-08-07T01:12:52;96976.13;;;17.60;81.39
39487;BME280;25173;50.430;18.926;2023-08-07T01:16:02;96966.59;;;17.57;81.20
39487;BME280;25173;50.430;18.926;2023-08-07T01:19:34;96969.97;;;17.51;81.03
39487;BME280;25173;50.430;18.926;2023-08-07T01:22:32;96973.44;;;17.48;81.32
39487;BME280;25173;50.430;18.926;2023-08-07T01:25:34;96966.06;;;17.52;80.99
39487;BME280;25173;50.430;18.926;2023-08-07T01:28:42;96971.22;;;17.53;81.19
39487;BME280;25173;50.430;18.926;2023-08-07T01:31:49;96970.41;;;17.53;81.18
39487;BME280;25173;50.430;18.926;2023-08-07T01:34:53;96978.00;;;17.56;81.22
39487;BME280;25173;50.430;18.926;2023-08-07T01:37:56;96980.84;;;17.59;81.15
39487;BME280;25173;50.430;18.926;2023-08-07T01:41:00;96982.13;;;17.62;80.97
39487;BME280;25173;50.430;18.926;2023-08-07T01:44:01;96985.53;;;17.59;81.04
39487;BME280;25173;50.430;18.926;2023-08-07T01:47:03;96980.75;;;17.56;81.13
39487;BME280;25173;50.430;18.926;2023-08-07T01:50:05;96983.03;;;17.54;81.09
39487;BME280;25173;50.430;18.926;2023-08-07T01:53:05;96991.63;;;17.52;81.37
39487;BME280;25173;50.430;18.926;2023-08-07T01:56:06;96982.69;;;17.55;81.33
39487;BME280;25173;50.430;18.926;2023-08-07T01:59:07;96983.94;;;17.58;81.17
39487;BME280;25173;50.430;18.926;2023-08-07T02:02:07;96978.00;;;17.56;80.94
39487;BME280;25173;50.430;18.926;2023-08-07T02:05:08;96977.78;;;17.49;81.61
39487;BME280;25173;50.430;18.926;2023-08-07T02:08:09;96979.75;;;17.48;81.51
39487;BME280;25173;50.430;18.926;2023-08-07T02:11:10;96981.31;;;17.49;81.28
39487;BME280;25173;50.430;18.926;2023-08-07T02:14:11;96989.22;;;17.51;81.22
39487;BME280;25173;50.430;18.926;2023-08-07T02:17:12;96984.19;;;17.53;81.17
39487;BME280;25173;50.430;18.926;2023-08-07T02:20:16;96981.19;;;17.58;81.46
39487;BME280;25173;50.430;18.926;2023-08-07T02:23:16;96988.44;;;17.50;81.01
39487;BME280;25173;50.430;18.926;2023-08-07T02:26:17;96985.03;;;17.41;81.32
39487;BME280;25173;50.430;18.926;2023-08-07T02:29:17;96990.41;;;17.37;81.24
39487;BME280;25173;50.430;18.926;2023-08-07T02:32:18;96980.78;;;17.31;81.25
39487;BME280;25173;50.430;18.926;2023-08-07T02:35:18;96984.69;;;17.30;81.13
39487;BME280;25173;50.430;18.926;2023-08-07T02:38:19;96985.63;;;17.22;81.44
39487;BME280;25173;50.430;18.926;2023-08-07T02:41:20;96985.16;;;17.20;81.62
39487;BME280;25173;50.430;18.926;2023-08-07T02:44:21;96996.88;;;17.17;81.64
39487;BME280;25173;50.430;18.926;2023-08-07T02:47:21;96996.88;;;17.17;81.87
39487;BME280;25173;50.430;18.926;2023-08-07T02:50:22;96993.66;;;17.15;81.83
39487;BME280;25173;50.430;18.926;2023-08-07T02:53:22;96991.56;;;17.12;82.25
39487;BME280;25173;50.430;18.926;2023-08-07T02:56:23;96984.94;;;17.13;82.04
39487;BME280;25173;50.430;18.926;2023-08-07T02:59:24;96994.31;;;17.12;82.08
39487;BME280;25173;50.430;18.926;2023-08-07T03:02:24;96992.28;;;17.09;82.17
39487;BME280;25173;50.430;18.926;2023-08-07T03:05:25;96987.59;;;17.10;82.16
39487;BME280;25173;50.430;18.926;2023-08-07T03:08:26;96996.31;;;17.12;82.42
39487;BME280;25173;50.430;18.926;2023-08-07T03:11:27;96999.81;;;17.12;82.17
39487;BME280;25173;50.430;18.926;2023-08-07T03:14:27;97003.03;;;17.14;82.48
39487;BME280;25173;50.430;18.926;2023-08-07T03:17:28;97001.22;;;17.18;82.34
39487;BME280;25173;50.430;18.926;2023-08-07T03:20:28;96995.34;;;17.20;82.20
39487;BME280;25173;50.430;18.926;2023-08-07T03:23:29;97001.66;;;17.20;82.29
39487;BME280;25173;50.430;18.926;2023-08-07T03:26:32;96997.28;;;17.19;82.08
39487;BME280;25173;50.430;18.926;2023-08-07T03:29:32;96994.66;;;17.23;82.34
39487;BME280;25173;50.430;18.926;2023-08-07T03:32:34;96992.25;;;17.21;82.19
39487;BME280;25173;50.430;18.926;2023-08-07T03:35:34;96992.97;;;17.18;82.33
39487;BME280;25173;50.430;18.926;2023-08-07T03:38:35;96994.69;;;17.11;82.35
39487;BME280;25173;50.430;18.926;2023-08-07T03:41:36;96998.25;;;17.11;82.51
39487;BME280;25173;50.430;18.926;2023-08-07T03:44:37;97002.56;;;17.12;82.27
39487;BME280;25173;50.430;18.926;2023-08-07T03:47:37;97005.31;;;17.12;82.24
39487;BME280;25173;50.430;18.926;2023-08-07T03:50:39;97000.53;;;17.09;82.54
39487;BME280;25173;50.430;18.926;2023-08-07T03:53:40;97007.19;;;17.08;82.26
39487;BME280;25173;50.430;18.926;2023-08-07T03:56:40;97008.44;;;17.11;82.55
39487;BME280;25173;50.430;18.926;2023-08-07T03:59:42;97004.44;;;17.08;82.22
39487;BME280;25173;50.430;18.926;2023-08-07T04:02:42;97007.66;;;17.10;82.45
39487;BME280;25173;50.430;18.926;2023-08-07T04:05:45;97012.34;;;17.10;82.67
39487;BME280;25173;50.430;18.926;2023-08-07T04:08:45;97013.47;;;17.08;82.30
39487;BME280;25173;50.430;18.926;2023-08-07T04:11:46;97014.06;;;17.14;82.47
39487;BME280;25173;50.430;18.926;2023-08-07T04:14:47;97022.78;;;17.16;82.49
39487;BME280;25173;50.430;18.926;2023-08-07T04:17:48;97032.72;;;17.21;82.81
39487;BME280;25173;50.430;18.926;2023-08-07T04:20:50;97027.00;;;17.26;82.50
39487;BME280;25173;50.430;18.926;2023-08-07T04:23:51;97031.94;;;17.32;82.50
39487;BME280;25173;50.430;18.926;2023-08-07T04:26:52;97036.06;;;17.38;82.32
39487;BME280;25173;50.430;18.926;2023-08-07T04:29:53;97035.81;;;17.43;82.38
39487;BME280;25173;50.430;18.926;2023-08-07T04:32:54;97041.22;;;17.40;82.21
39487;BME280;25173;50.430;18.926;2023-08-07T04:35:55;97035.94;;;17.35;82.27
39487;BME280;25173;50.430;18.926;2023-08-07T04:38:56;97037.88;;;17.34;82.37
39487;BME280;25173;50.430;18.926;2023-08-07T04:41:57;97041.91;;;17.37;82.38
39487;BME280;25173;50.430;18.926;2023-08-07T04:44:57;97041.66;;;17.42;82.28
39487;BME280;25173;50.430;18.926;2023-08-07T04:47:58;97038.44;;;17.52;81.77
39487;BME280;25173;50.430;18.926;2023-08-07T04:50:58;97041.75;;;17.58;81.69
39487;BME280;25173;50.430;18.926;2023-08-07T04:53:59;97040.84;;;17.66;81.44
39487;BME280;25173;50.430;18.926;2023-08-07T04:57:00;97040.72;;;17.74;81.46
39487;BME280;25173;50.430;18.926;2023-08-07T05:00:00;97049.41;;;17.89;81.07
39487;BME280;25173;50.430;18.926;2023-08-07T05:03:01;97058.22;;;17.94;80.59
39487;BME280;25173;50.430;18.926;2023-08-07T05:06:02;97052.28;;;17.92;80.17
39487;BME280;25173;50.430;18.926;2023-08-07T05:09:02;97047.66;;;17.96;80.13
39487;BME280;25173;50.430;18.926;2023-08-07T05:12:04;97048.66;;;18.04;80.41
39487;BME280;25173;50.430;18.926;2023-08-07T05:15:06;97050.75;;;18.07;80.24
39487;BME280;25173;50.430;18.926;2023-08-07T05:18:06;97051.53;;;18.07;80.32
39487;BME280;25173;50.430;18.926;2023-08-07T05:21:07;97050.75;;;18.07;80.35
39487;BME280;25173;50.430;18.926;2023-08-07T05:24:09;97053.84;;;18.05;80.26
39487;BME280;25173;50.430;18.926;2023-08-07T05:27:10;97060.28;;;17.97;80.61
39487;BME280;25173;50.430;18.926;2023-08-07T05:30:11;97062.34;;;18.00;81.12
39487;BME280;25173;50.430;18.926;2023-08-07T05:33:11;97062.34;;;18.00;80.81
39487;BME280;25173;50.430;18.926;2023-08-07T05:36:15;97064.91;;;17.93;80.22
39487;BME280;25173;50.430;18.926;2023-08-07T05:39:15;97064.72;;;17.74;80.35
39487;BME280;25173;50.430;18.926;2023-08-07T05:42:16;97065.97;;;17.64;80.79
39487;BME280;25173;50.430;18.926;2023-08-07T05:45:16;97069.09;;;17.63;81.19
39487;BME280;25173;50.430;18.926;2023-08-07T05:48:17;97066.91;;;17.68;81.37
39487;BME280;25173;50.430;18.926;2023-08-07T05:51:17;97069.53;;;17.77;81.11
39487;BME280;25173;50.430;18.926;2023-08-07T05:54:20;97069.75;;;17.84;80.92
39487;BME280;25173;50.430;18.926;2023-08-07T05:57:20;97067.34;;;17.82;80.53
39487;BME280;25173;50.430;18.926;2023-08-07T06:00:21;97081.56;;;17.84;80.73
39487;BME280;25173;50.430;18.926;2023-08-07T06:03:21;97087.16;;;17.88;80.32
39487;BME280;25173;50.430;18.926;2023-08-07T06:06:22;97083.59;;;17.88;79.93
39487;BME280;25173;50.430;18.926;2023-08-07T06:09:22;97080.16;;;17.91;80.17
39487;BME280;25173;50.430;18.926;2023-08-07T06:12:23;97083.38;;;17.93;79.81
39487;BME280;25173;50.430;18.926;2023-08-07T06:15:23;97090.59;;;17.97;80.23
39487;BME280;25173;50.430;18.926;2023-08-07T06:18:24;97091.94;;;18.03;79.73
39487;BME280;25173;50.430;18.926;2023-08-07T06:21:24;97090.47;;;18.06;79.66
39487;BME280;25173;50.430;18.926;2023-08-07T06:24:25;97098.47;;;18.11;79.89
39487;BME280;25173;50.430;18.926;2023-08-07T06:27:26;97105.59;;;18.12;79.50
39487;BME280;25173;50.430;18.926;2023-08-07T06:30:27;97112.84;;;18.04;79.46
39487;BME280;25173;50.430;18.926;2023-08-07T06:33:31;97102.97;;;18.03;79.80
39487;BME280;25173;50.430;18.926;2023-08-07T06:36:33;97103.09;;;18.07;80.16
39487;BME280;25173;50.430;18.926;2023-08-07T06:39:33;97099.97;;;18.08;79.74
39487;BME280;25173;50.430;18.926;2023-08-07T06:42:34;97104.09;;;18.14;80.05
39487;BME280;25173;50.430;18.926;2023-08-07T06:45:34;97105.72;;;18.15;80.17
39487;BME280;25173;50.430;18.926;2023-08-07T06:48:35;97098.34;;;18.19;80.13
39487;BME280;25173;50.430;18.926;2023-08-07T06:51:36;97112.91;;;18.20;79.91
39487;BME280;25173;50.430;18.926;2023-08-07T06:54:36;97104.66;;;18.20;79.69
39487;BME280;25173;50.430;18.926;2023-08-07T06:57:37;97107.16;;;18.25;80.04
39487;BME280;25173;50.430;18.926;2023-08-07T07:00:37;97107.63;;;18.27;79.96
39487;BME280;25173;50.430;18.926;2023-08-07T07:03:38;97114.13;;;18.35;80.04
39487;BME280;25173;50.430;18.926;2023-08-07T07:06:39;97108.47;;;18.43;80.35
39487;BME280;25173;50.430;18.926;2023-08-07T07:09:39;97119.13;;;18.57;80.35
39487;BME280;25173;50.430;18.926;2023-08-07T07:12:40;97110.78;;;18.69;79.97
39487;BME280;25173;50.430;18.926;2023-08-07T07:15:40;97127.66;;;18.80;79.48
39487;BME280;25173;50.430;18.926;2023-08-07T07:18:41;97126.22;;;18.86;79.55
39487;BME280;25173;50.430;18.926;2023-08-07T07:21:42;97120.56;;;18.94;79.19
39487;BME280;25173;50.430;18.926;2023-08-07T07:24:42;97126.41;;;18.93;78.89
39487;BME280;25173;50.430;18.926;2023-08-07T07:27:43;97130.78;;;18.94;79.07
39487;BME280;25173;50.430;18.926;2023-08-07T07:30:44;97131.25;;;18.96;78.87
39487;BME280;25173;50.430;18.926;2023-08-07T07:33:44;97135.00;;;19.04;78.65
39487;BME280;25173;50.430;18.926;2023-08-07T07:36:47;97139.34;;;19.05;78.35
39487;BME280;25173;50.430;18.926;2023-08-07T07:39:47;97137.19;;;18.98;78.31
39487;BME280;25173;50.430;18.926;2023-08-07T07:42:48;97148.03;;;18.91;77.94
39487;BME280;25173;50.430;18.926;2023-08-07T07:45:49;97154.63;;;18.86;78.50
39487;BME280;25173;50.430;18.926;2023-08-07T07:48:50;97156.03;;;18.80;78.29
39487;BME280;25173;50.430;18.926;2023-08-07T07:51:50;97163.53;;;18.68;78.28
39487;BME280;25173;50.430;18.926;2023-08-07T07:54:51;97154.25;;;18.60;78.93
39487;BME280;25173;50.430;18.926;2023-08-07T07:57:51;97159.28;;;18.70;78.89
39487;BME280;25173;50.430;18.926;2023-08-07T08:00:52;97158.13;;;18.71;79.10
39487;BME280;25173;50.430;18.926;2023-08-07T08:03:54;97163.66;;;18.71;79.02
39487;BME280;25173;50.430;18.926;2023-08-07T08:06:55;97162.03;;;18.70;79.33
39487;BME280;25173;50.430;18.926;2023-08-07T08:09:55;97164.59;;;18.63;79.46
39487;BME280;25173;50.430;18.926;2023-08-07T08:12:56;97159.13;;;18.51;80.24
39487;BME280;25173;50.430;18.926;2023-08-07T08:15:57;97161.41;;;18.49;80.88
39487;BME280;25173;50.430;18.926;2023-08-07T08:18:57;97165.78;;;18.50;80.61
39487;BME280;25173;50.430;18.926;2023-08-07T08:21:58;97159.81;;;18.48;80.87
39487;BME280;25173;50.430;18.926;2023-08-07T08:24:59;97166.91;;;18.61;82.12
39487;BME280;25173;50.430;18.926;2023-08-07T08:27:59;97169.09;;;18.83;81.40
39487;BME280;25173;50.430;18.926;2023-08-07T08:31:00;97167.34;;;18.91;81.23
39487;BME280;25173;50.430;18.926;2023-08-07T08:34:01;97181.00;;;18.99;80.71
39487;BME280;25173;50.430;18.926;2023-08-07T08:37:01;97176.00;;;19.05;80.70
39487;BME280;25173;50.430;18.926;2023-08-07T08:40:02;97182.34;;;19.06;79.88
39487;BME280;25173;50.430;18.926;2023-08-07T08:43:04;97187.94;;;18.93;79.11
39487;BME280;25173;50.430;18.926;2023-08-07T08:46:05;97196.69;;;18.83;79.01
39487;BME280;25173;50.430;18.926;2023-08-07T08:49:07;97191.34;;;18.75;79.41
39487;BME280;25173;50.430;18.926;2023-08-07T08:52:09;97200.19;;;18.68;79.17
39487;BME280;25173;50.430;18.926;2023-08-07T08:55:11;97205.78;;;18.56;79.02
39487;BME280;25173;50.430;18.926;2023-08-07T08:58:15;97201.41;;;18.43;79.15
39487;BME280;25173;50.430;18.926;2023-08-07T09:01:17;97195.56;;;18.32;79.50
39487;BME280;25173;50.430;18.926;2023-08-07T09:04:18;97203.97;;;18.23;79.89
39487;BME280;25173;50.430;18.926;2023-08-07T09:07:20;97203.06;;;18.19;80.08
39487;BME280;25173;50.430;18.926;2023-08-07T09:10:20;97212.69;;;18.26;80.59
39487;BME280;25173;50.430;18.926;2023-08-07T09:13:23;97205.09;;;18.35;80.52
39487;BME280;25173;50.430;18.926;2023-08-07T09:16:27;97214.50;;;18.46;80.34
39487;BME280;25173;50.430;18.926;2023-08-07T09:19:28;97217.03;;;18.51;80.31
39487;BME280;25173;50.430;18.926;2023-08-07T09:22:28;97221.81;;;18.54;80.42
39487;BME280;25173;50.430;18.926;2023-08-07T09:25:33;97239.31;;;18.46;80.75
39487;BME280;25173;50.430;18.926;2023-08-07T09:28:34;97253.69;;;17.78;79.11
39487;BME280;25173;50.430;18.926;2023-08-07T09:31:36;97273.91;;;16.84;81.12
39487;BME280;25173;50.430;18.926;2023-08-07T09:34:41;97268.50;;;16.25;83.72
39487;BME280;25173;50.430;18.926;2023-08-07T09:37:43;97264.81;;;15.91;84.96
39487;BME280;25173;50.430;18.926;2023-08-07T09:40:43;97270.88;;;15.68;85.92
39487;BME280;25173;50.430;18.926;2023-08-07T09:43:44;97281.75;;;15.56;86.89
39487;BME280;25173;50.430;18.926;2023-08-07T09:46:45;97276.91;;;15.44;87.31
39487;BME280;25173;50.430;18.926;2023-08-07T09:49:45;97276.75;;;15.40;88.27
39487;BME280;25173;50.430;18.926;2023-08-07T09:52:48;97279.34;;;15.37;88.34
39487;BME280;25173;50.430;18.926;2023-08-07T09:55:52;97287.56;;;15.37;89.33
39487;BME280;25173;50.430;18.926;2023-08-07T09:58:52;97276.09;;;15.35;89.66
39487;BME280;25173;50.430;18.926;2023-08-07T10:01:54;97284.63;;;15.42;90.23
39487;BME280;25173;50.430;18.926;2023-08-07T10:04:55;97290.59;;;15.52;90.37
39487;BME280;25173;50.430;18.926;2023-08-07T10:07:57;97292.34;;;15.66;90.76
39487;BME280;25173;50.430;18.926;2023-08-07T10:10:58;97292.66;;;15.73;90.80
39487;BME280;25173;50.430;18.926;2023-08-07T10:13:59;97298.13;;;15.73;91.28
39487;BME280;25173;50.430;18.926;2023-08-07T10:17:00;97300.88;;;15.81;91.41
39487;BME280;25173;50.430;18.926;2023-08-07T10:20:01;97300.38;;;15.79;91.35
39487;BME280;25173;50.430;18.926;2023-08-07T10:23:08;97298.13;;;15.73;91.81
39487;BME280;25173;50.430;18.926;2023-08-07T10:26:10;97293.94;;;15.75;92.20
39487;BME280;25173;50.430;18.926;2023-08-07T10:29:14;97299.25;;;15.80;92.59
39487;BME280;25173;50.430;18.926;2023-08-07T10:32:19;97311.50;;;15.91;92.74
39487;BME280;25173;50.430;18.926;2023-08-07T10:35:44;97312.81;;;15.85;92.24
39487;BME280;25173;50.430;18.926;2023-08-07T10:38:49;97308.00;;;15.74;92.50
39487;BME280;25173;50.430;18.926;2023-08-07T10:41:53;97317.88;;;15.66;92.65
39487;BME280;25173;50.430;18.926;2023-08-07T10:45:01;97310.94;;;15.69;93.81
39487;BME280;25173;50.430;18.926;2023-08-07T10:51:05;97309.09;;;15.81;93.99
39487;BME280;25173;50.430;18.926;2023-08-07T10:54:06;97312.81;;;15.85;94.11
39487;BME280;25173;50.430;18.926;2023-08-07T10:57:10;97315.19;;;15.96;94.34
39487;BME280;25173;50.430;18.926;2023-08-07T11:00:12;97311.34;;;16.17;95.63
39487;BME280;25173;50.430;18.926;2023-08-07T11:03:25;97318.84;;;16.38;94.83
39487;BME280;25173;50.430;18.926;2023-08-07T11:06:31;97317.97;;;16.46;94.74
39487;BME280;25173;50.430;18.926;2023-08-07T11:09:33;97315.88;;;16.51;94.48
39487;BME280;25173;50.430;18.926;2023-08-07T11:12:34;97319.53;;;16.64;95.54
39487;BME280;25173;50.430;18.926;2023-08-07T11:15:35;97308.38;;;16.60;93.95
39487;BME280;25173;50.430;18.926;2023-08-07T11:18:37;97315.59;;;16.74;95.89
39487;BME280;25173;50.430;18.926;2023-08-07T11:21:42;97312.75;;;16.82;94.60
39487;BME280;25173;50.430;18.926;2023-08-07T11:24:43;97313.03;;;16.89;95.29
39487;BME280;25173;50.430;18.926;2023-08-07T11:27:43;97316.84;;;16.97;95.64
39487;BME280;25173;50.430;18.926;2023-08-07T11:30:45;97315.78;;;17.10;95.74
39487;BME280;25173;50.430;18.926;2023-08-07T11:33:46;97321.00;;;17.03;94.26
39487;BME280;25173;50.430;18.926;2023-08-07T11:36:47;97325.38;;;17.04;95.62
39487;BME280;25173;50.430;18.926;2023-08-07T11:39:48;97327.84;;;17.18;95.99
39487;BME280;25173;50.430;18.926;2023-08-07T11:42:49;97327.94;;;17.42;96.95
39487;BME280;25173;50.430;18.926;2023-08-07T11:45:49;97325.97;;;17.42;94.56
39487;BME280;25173;50.430;18.926;2023-08-07T11:48:51;97327.47;;;17.40;93.83
39487;BME280;25173;50.430;18.926;2023-08-07T11:51:52;97336.53;;;17.40;94.35
39487;BME280;25173;50.430;18.926;2023-08-07T11:54:54;97337.22;;;17.37;94.21
39487;BME280;25173;50.430;18.926;2023-08-07T11:57:55;97349.44;;;17.49;94.98
39487;BME280;25173;50.430;18.926;2023-08-07T12:00:55;97345.69;;;17.65;94.87
39487;BME280;25173;50.430;18.926;2023-08-07T12:04:08;97338.06;;;17.83;94.18
39487;BME280;25173;50.430;18.926;2023-08-07T12:07:09;97340.16;;;17.98;93.71
39487;BME280;25173;50.430;18.926;2023-08-07T12:10:11;97345.22;;;18.08;92.91
39487;BME280;25173;50.430;18.926;2023-08-07T12:13:12;97344.06;;;17.97;91.11
39487;BME280;25173;50.430;18.926;2023-08-07T12:16:14;97347.72;;;18.01;92.28
39487;BME280;25173;50.430;18.926;2023-08-07T12:19:17;97341.22;;;18.06;90.90
39487;BME280;25173;50.430;18.926;2023-08-07T12:22:19;97350.38;;;18.10;90.72
39487;BME280;25173;50.430;18.926;2023-08-07T12:25:21;97351.91;;;18.19;90.80
39487;BME280;25173;50.430;18.926;2023-08-07T12:28:21;97359.16;;;18.36;91.73
39487;BME280;25173;50.430;18.926;2023-08-07T12:31:22;97369.94;;;18.41;90.29
39487;BME280;25173;50.430;18.926;2023-08-07T12:34:22;97363.97;;;18.39;90.22
39487;BME280;25173;50.430;18.926;2023-08-07T12:37:23;97370.97;;;18.37;87.82
39487;BME280;25173;50.430;18.926;2023-08-07T12:40:24;97370.84;;;18.21;87.91
39487;BME280;25173;50.430;18.926;2023-08-07T12:43:25;97376.13;;;18.26;89.76
39487;BME280;25173;50.430;18.926;2023-08-07T12:46:26;97384.44;;;18.50;89.99
39487;BME280;25173;50.430;18.926;2023-08-07T12:49:26;97380.88;;;18.62;88.58
39487;BME280;25173;50.430;18.926;2023-08-07T12:52:27;97378.19;;;18.90;88.02
39487;BME280;25173;50.430;18.926;2023-08-07T12:55:28;97387.63;;;19.01;88.25
39487;BME280;25173;50.430;18.926;2023-08-07T12:58:29;97393.78;;;19.22;86.88
39487;BME280;25173;50.430;18.926;2023-08-07T13:01:29;97388.22;;;19.47;87.60
39487;BME280;25173;50.430;18.926;2023-08-07T13:04:30;97382.19;;;19.85;87.64
39487;BME280;25173;50.430;18.926;2023-08-07T13:07:33;97383.59;;;20.38;86.11
39487;BME280;25173;50.430;18.926;2023-08-07T13:10:34;97391.25;;;20.60;83.66
39487;BME280;25173;50.430;18.926;2023-08-07T13:13:34;97391.84;;;20.85;81.58
39487;BME280;25173;50.430;18.926;2023-08-07T13:16:35;97395.03;;;21.03;81.07
39487;BME280;25173;50.430;18.926;2023-08-07T13:19:35;97399.50;;;21.07;80.08
39487;BME280;25173;50.430;18.926;2023-08-07T13:22:37;97388.25;;;21.35;79.67
39487;BME280;25173;50.430;18.926;2023-08-07T13:25:38;97399.56;;;21.84;78.28
39487;BME280;25173;50.430;18.926;2023-08-07T13:28:38;97393.47;;;22.17;75.38
39487;BME280;25173;50.430;18.926;2023-08-07T13:31:39;97392.50;;;22.29;73.01
39487;BME280;25173;50.430;18.926;2023-08-07T13:34:41;97401.88;;;22.21;72.90
39487;BME280;25173;50.430;18.926;2023-08-07T13:37:42;97404.81;;;22.54;72.36
39487;BME280;25173;50.430;18.926;2023-08-07T13:40:42;97415.91;;;22.73;71.67
39487;BME280;25173;50.430;18.926;2023-08-07T13:43:44;97410.63;;;22.68;69.81
39487;BME280;25173;50.430;18.926;2023-08-07T13:46:45;97410.25;;;22.93;69.25
39487;BME280;25173;50.430;18.926;2023-08-07T13:49:46;97409.97;;;23.28;68.81
39487;BME280;25173;50.430;18.926;2023-08-07T13:52:46;97422.06;;;23.42;67.88
39487;BME280;25173;50.430;18.926;2023-08-07T13:55:47;97415.72;;;23.42;65.83
39487;BME280;25173;50.430;18.926;2023-08-07T13:58:48;97412.13;;;23.11;66.78
39487;BME280;25173;50.430;18.926;2023-08-07T14:01:48;97414.66;;;23.50;67.49
39487;BME280;25173;50.430;18.926;2023-08-07T14:04:49;97407.47;;;23.79;67.64
39487;BME280;25173;50.430;18.926;2023-08-07T14:07:49;97418.41;;;23.94;65.47
39487;BME280;25173;50.430;18.926;2023-08-07T14:10:50;97430.06;;;23.74;64.86
39487;BME280;25173;50.430;18.926;2023-08-07T14:13:50;97421.78;;;23.21;64.92
39487;BME280;25173;50.430;18.926;2023-08-07T14:16:51;97425.97;;;22.81;64.69
39487;BME280;25173;50.430;18.926;2023-08-07T14:19:52;97430.13;;;22.49;65.56
39487;BME280;25173;50.430;18.926;2023-08-07T14:22:52;97424.13;;;22.24;65.91
39487;BME280;25173;50.430;18.926;2023-08-07T14:25:53;97426.41;;;22.19;66.55
39487;BME280;25173;50.430;18.926;2023-08-07T14:28:54;97439.81;;;22.17;67.56
39487;BME280;25173;50.430;18.926;2023-08-07T14:31:55;97431.00;;;22.30;67.43
39487;BME280;25173;50.430;18.926;2023-08-07T14:34:55;97423.56;;;22.38;67.20
39487;BME280;25173;50.430;18.926;2023-08-07T14:37:56;97423.91;;;22.78;67.76
39487;BME280;25173;50.430;18.926;2023-08-07T14:40:57;97437.34;;;23.52;67.16
39487;BME280;25173;50.430;18.926;2023-08-07T14:43:59;97440.38;;;24.03;64.13
39487;BME280;25173;50.430;18.926;2023-08-07T14:47:00;97453.34;;;23.92;63.44
39487;BME280;25173;50.430;18.926;2023-08-07T14:50:00;97449.88;;;23.69;63.59
39487;BME280;25173;50.430;18.926;2023-08-07T14:53:01;97452.25;;;23.40;63.77
39487;BME280;25173;50.430;18.926;2023-08-07T14:56:02;97443.78;;;23.07;63.95
39487;BME280;25173;50.430;18.926;2023-08-07T14:59:03;97457.81;;;22.68;64.42
39487;BME280;25173;50.430;18.926;2023-08-07T15:02:04;97465.50;;;22.33;65.52
39487;BME280;25173;50.430;18.926;2023-08-07T15:05:05;97450.56;;;22.18;65.51
39487;BME280;25173;50.430;18.926;2023-08-07T15:08:05;97462.47;;;22.19;65.20
39487;BME280;25173;50.430;18.926;2023-08-07T15:11:06;97466.31;;;22.33;65.70
39487;BME280;25173;50.430;18.926;2023-08-07T15:14:07;97477.50;;;22.37;65.30
39487;BME280;25173;50.430;18.926;2023-08-07T15:17:08;97480.41;;;22.44;65.41
39487;BME280;25173;50.430;18.926;2023-08-07T15:20:09;97482.22;;;22.36;64.97
39487;BME280;25173;50.430;18.926;2023-08-07T15:23:09;97486.91;;;22.32;65.07
39487;BME280;25173;50.430;18.926;2023-08-07T15:26:10;97486.09;;;22.32;64.75
39487;BME280;25173;50.430;18.926;2023-08-07T15:29:11;97490.91;;;22.35;65.03
39487;BME280;25173;50.430;18.926;2023-08-07T15:32:11;97486.91;;;22.32;65.37
39487;BME280;25173;50.430;18.926;2023-08-07T15:35:13;97486.25;;;22.20;65.25
39487;BME280;25173;50.430;18.926;2023-08-07T15:38:14;97477.53;;;21.98;65.46
39487;BME280;25173;50.430;18.926;2023-08-07T15:41:14;97482.09;;;21.91;64.95
39487;BME280;25173;50.430;18.926;2023-08-07T15:44:15;97503.16;;;21.95;64.66
39487;BME280;25173;50.430;18.926;2023-08-07T15:47:16;97510.13;;;22.05;64.34
39487;BME280;25173;50.430;18.926;2023-08-07T15:50:16;97508.53;;;22.04;64.06